createdAt,value
2018-12-19T00:01:32.866Z,101665.91
2018-12-19T00:04:02.128Z,101655.48
2018-12-19T00:06:31.507Z,101641.95
2018-12-19T00:09:03.297Z,101630.17
2018-12-19T00:11:30.110Z,101631.50
2018-12-19T00:13:59.371Z,101621.93
2018-12-19T00:16:28.695Z,101626.33
2018-12-19T00:18:58.055Z,101631.13
2018-12-19T00:21:27.400Z,101627.20
2018-12-19T00:23:56.693Z,101638.58
2018-12-19T00:26:25.959Z,101647.28
2018-12-19T00:28:55.244Z,101646.41
2018-12-19T00:31:24.659Z,101636.81
2018-12-19T00:33:53.996Z,101631.15
2018-12-19T00:36:23.377Z,101622.42
2018-12-19T00:38:52.657Z,101614.61
2018-12-19T00:41:21.972Z,101611.56
2018-12-19T00:43:51.253Z,101611.16
2018-12-19T00:46:20.606Z,101610.70
2018-12-19T00:48:50.025Z,101605.06
2018-12-19T00:51:19.309Z,101600.68
2018-12-19T00:53:48.594Z,101591.51
2018-12-19T00:56:17.973Z,101598.50
2018-12-19T00:58:47.271Z,101596.30
2018-12-19T01:01:16.542Z,101584.09
2018-12-19T01:03:45.863Z,101595.44
2018-12-19T01:06:15.104Z,101588.89
2018-12-19T01:08:44.370Z,101580.59
2018-12-19T01:11:13.628Z,101579.73
2018-12-19T01:13:42.896Z,101580.59
2018-12-19T01:16:12.158Z,101582.77
2018-12-19T01:18:41.424Z,101567.05
2018-12-19T01:21:10.676Z,101564.88
2018-12-19T01:23:39.958Z,101564.48
2018-12-19T01:26:09.299Z,101563.17
2018-12-19T01:28:38.566Z,101563.61
2018-12-19T01:31:07.847Z,101579.73
2018-12-19T01:33:37.110Z,101579.74
2018-12-19T01:36:06.358Z,101583.22
2018-12-19T01:38:35.697Z,101574.05
2018-12-19T01:41:04.957Z,101559.25
2018-12-19T01:43:34.218Z,101562.73
2018-12-19T01:46:03.521Z,101550.12
2018-12-19T01:48:32.795Z,101554.92
2018-12-19T01:51:02.099Z,101541.83
2018-12-19T01:53:31.403Z,101540.52
2018-12-19T01:56:00.723Z,101541.78
2018-12-19T01:58:30.116Z,101542.24
2018-12-19T02:00:59.440Z,101543.09
2018-12-19T02:03:29.122Z,101541.78
2018-12-19T02:05:58.529Z,101545.27
2018-12-19T02:08:27.819Z,101541.77
2018-12-19T02:10:57.429Z,101527.34
2018-12-19T02:13:26.708Z,101525.63
2018-12-19T02:15:55.997Z,101517.77
2018-12-19T02:18:25.357Z,101522.13
2018-12-19T02:20:54.606Z,101515.56
2018-12-19T02:23:23.876Z,101512.09
2018-12-19T02:25:53.179Z,101511.24
2018-12-19T02:28:22.485Z,101520.41
2018-12-19T02:30:51.753Z,101517.36
2018-12-19T02:33:21.070Z,101528.69
2018-12-19T02:35:50.376Z,101523.04
2018-12-19T02:38:19.695Z,101529.16
2018-12-19T02:40:48.953Z,101527.43
2018-12-19T02:43:18.278Z,101524.79
2018-12-19T02:45:47.537Z,101519.98
2018-12-19T02:48:16.857Z,101518.27
2018-12-19T02:50:46.108Z,101524.81
2018-12-19T02:53:15.446Z,101524.38
2018-12-19T02:55:44.849Z,101520.00
2018-12-19T02:58:14.137Z,101511.72
2018-12-19T03:00:43.492Z,101507.80
2018-12-19T03:03:12.758Z,101488.16
2018-12-19T03:05:42.049Z,101482.03
2018-12-19T03:08:11.383Z,101486.39
2018-12-19T03:10:40.648Z,101491.20
2018-12-19T03:13:10.010Z,101482.08
2018-12-19T03:15:39.202Z,101469.42
2018-12-19T03:18:08.449Z,101476.83
2018-12-19T03:20:37.719Z,101475.97
2018-12-19T03:23:06.981Z,101459.80
2018-12-19T03:25:36.222Z,101451.51
2018-12-19T03:28:05.493Z,101451.06
2018-12-19T03:30:34.720Z,101451.94
2018-12-19T03:33:03.996Z,101436.24
2018-12-19T03:35:33.362Z,101439.27
2018-12-19T03:38:02.612Z,101433.17
2018-12-19T03:40:31.939Z,101415.73
2018-12-19T03:43:01.193Z,101413.96
2018-12-19T03:45:30.438Z,101408.30
2018-12-19T03:47:59.736Z,101389.53
2018-12-19T03:50:29.037Z,101386.02
2018-12-19T03:52:58.358Z,101395.63
2018-12-19T03:55:27.776Z,101395.63
2018-12-19T03:57:57.039Z,101403.92
2018-12-19T04:00:26.353Z,101398.25
2018-12-19T04:02:55.728Z,101401.75
2018-12-19T04:05:24.958Z,101394.31
2018-12-19T04:07:54.247Z,101394.32
2018-12-19T04:10:23.521Z,101389.09
2018-12-19T04:12:55.510Z,101399.13
2018-12-19T04:15:24.852Z,101391.70
2018-12-19T04:17:54.169Z,101386.02
2018-12-19T04:20:23.405Z,101390.81
2018-12-19T04:22:52.751Z,101409.14
2018-12-19T04:25:22.031Z,101419.20
2018-12-19T04:27:51.312Z,101421.81
2018-12-19T04:30:20.540Z,101416.16
2018-12-19T04:32:49.812Z,101427.06
2018-12-19T04:35:19.095Z,101424.43
2018-12-19T04:37:48.435Z,101435.80
2018-12-19T04:40:17.720Z,101439.72
2018-12-19T04:42:47.012Z,101435.34
2018-12-19T04:45:16.259Z,101420.95
2018-12-19T04:47:45.563Z,101416.61
2018-12-19T04:50:14.812Z,101412.22
2018-12-19T04:52:44.059Z,101419.66
2018-12-19T04:55:13.361Z,101429.69
2018-12-19T04:57:42.622Z,101424.89
2018-12-19T05:00:11.917Z,101419.66
2018-12-19T05:02:41.190Z,101424.88
2018-12-19T05:05:10.478Z,101418.35
2018-12-19T05:07:39.819Z,101420.97
2018-12-19T05:10:12.498Z,101421.84
2018-12-19T05:12:38.362Z,101416.60
2018-12-19T05:15:08.379Z,101419.22
2018-12-19T05:17:37.673Z,101424.02
2018-12-19T05:20:08.946Z,101426.19
2018-12-19T05:22:38.212Z,101427.50
2018-12-19T05:25:10.304Z,101421.83
2018-12-19T05:27:39.598Z,101405.67
2018-12-19T05:30:08.910Z,101413.09
2018-12-19T05:32:38.131Z,101416.58
2018-12-19T05:35:07.431Z,101424.88
2018-12-19T05:37:36.692Z,101426.20
2018-12-19T05:40:07.571Z,101426.20
2018-12-19T05:42:36.840Z,101426.61
2018-12-19T05:45:07.752Z,101424.44
2018-12-19T05:47:37.030Z,101436.22
2018-12-19T05:50:06.888Z,101440.14
2018-12-19T05:52:36.161Z,101444.08
2018-12-19T05:55:05.818Z,101428.78
2018-12-19T05:57:35.061Z,101422.67
2018-12-19T06:00:04.916Z,101388.64
2018-12-19T06:02:34.751Z,101392.98
2018-12-19T06:05:04.757Z,101383.80
2018-12-19T06:07:34.042Z,101397.33
2018-12-19T06:10:03.290Z,101395.56
2018-12-19T06:12:32.562Z,101398.17
2018-12-19T06:15:01.834Z,101394.67
2018-12-19T06:17:31.096Z,101407.77
2018-12-19T06:20:00.444Z,101409.06
2018-12-19T06:22:29.765Z,101409.48
2018-12-19T06:24:59.011Z,101399.41
2018-12-19T06:27:28.300Z,101404.20
2018-12-19T06:29:57.643Z,101404.20
2018-12-19T06:32:26.908Z,101398.08
2018-12-19T06:34:56.246Z,101394.17
2018-12-19T06:37:25.489Z,101382.37
2018-12-19T06:39:54.839Z,101375.80
2018-12-19T06:42:24.107Z,101366.20
2018-12-19T06:44:53.348Z,101352.21
2018-12-19T06:47:22.666Z,101360.08
2018-12-19T06:49:51.941Z,101356.62
2018-12-19T06:52:21.206Z,101382.84
2018-12-19T06:54:50.544Z,101406.02
2018-12-19T06:57:19.972Z,101399.47
2018-12-19T06:59:49.261Z,101399.88
2018-12-19T07:02:19.693Z,101390.70
2018-12-19T07:04:47.820Z,101394.22
2018-12-19T07:07:17.113Z,101395.97
2018-12-19T07:09:46.378Z,101397.25
2018-12-19T07:12:15.664Z,101402.35
2018-12-19T07:14:46.327Z,101405.61
2018-12-19T07:17:14.270Z,101409.78
2018-12-19T07:19:43.565Z,101405.97
2018-12-19T07:22:12.870Z,101423.55
2018-12-19T07:24:42.216Z,101428.91
2018-12-19T07:27:11.532Z,101415.87
2018-12-19T07:29:41.562Z,101418.55
2018-12-19T07:32:10.868Z,101418.60
2018-12-19T07:34:44.140Z,101420.80
2018-12-19T07:37:09.599Z,101420.36
2018-12-19T07:39:38.914Z,101433.47
2018-12-19T07:42:08.301Z,101433.03
2018-12-19T07:44:37.604Z,101431.30
2018-12-19T07:47:07.047Z,101437.42
2018-12-19T07:49:36.360Z,101442.69
2018-12-19T07:52:05.693Z,101431.33
2018-12-19T07:54:35.115Z,101430.42
2018-12-19T07:57:04.439Z,101439.16
2018-12-19T07:59:33.718Z,101435.66
2018-12-19T08:02:03.040Z,101438.72
2018-12-19T08:04:32.330Z,101446.14
2018-12-19T08:07:02.112Z,101446.58
2018-12-19T08:09:31.536Z,101450.95
2018-12-19T08:12:00.784Z,101443.53
2018-12-19T08:14:30.036Z,101450.08
2018-12-19T08:16:59.358Z,101437.42
2018-12-19T08:19:29.605Z,101430.86
2018-12-19T08:21:58.864Z,101425.59
2018-12-19T08:24:28.156Z,101421.25
2018-12-19T08:26:57.437Z,101417.75
2018-12-19T08:29:26.761Z,101425.17
2018-12-19T08:31:56.086Z,101426.48
2018-12-19T08:34:25.463Z,101419.48
2018-12-19T08:36:54.768Z,101425.16
2018-12-19T08:39:24.048Z,101429.52
2018-12-19T08:41:53.477Z,101426.47
2018-12-19T08:44:24.410Z,101426.48
2018-12-19T08:46:52.270Z,101421.64
2018-12-19T08:49:21.558Z,101423.84
2018-12-19T08:51:50.891Z,101429.94
2018-12-19T08:54:20.284Z,101426.87
2018-12-19T08:56:49.553Z,101438.67
2018-12-19T08:59:18.817Z,101445.68
2018-12-19T09:01:48.087Z,101442.58
2018-12-19T09:04:17.398Z,101439.09
2018-12-19T09:06:46.792Z,101427.28
2018-12-19T09:09:16.102Z,101190.18
2018-12-19T09:11:45.416Z,101437.77
2018-12-19T09:14:14.702Z,101438.19
2018-12-19T09:16:44.088Z,101431.61
2018-12-19T09:19:13.425Z,101422.00
2018-12-19T09:21:42.794Z,101424.16
2018-12-19T09:24:12.085Z,101417.58
2018-12-19T09:26:41.512Z,101427.63
2018-12-19T09:29:10.807Z,101430.67
2018-12-19T09:31:40.211Z,101429.34
2018-12-19T09:34:09.511Z,101426.73
2018-12-19T09:36:38.831Z,101427.55
2018-12-19T09:39:08.117Z,101455.98
2018-12-19T09:41:39.565Z,101450.27
2018-12-19T09:44:09.015Z,101462.53
2018-12-19T09:46:38.359Z,101455.09
2018-12-19T09:49:12.319Z,101457.27
2018-12-19T09:51:36.925Z,101446.75
2018-12-19T09:54:06.367Z,101447.61
2018-12-19T09:56:35.771Z,101441.91
2018-12-19T09:59:05.104Z,101437.56
2018-12-19T10:01:34.403Z,101436.67
2018-12-19T10:04:03.917Z,101433.60
2018-12-19T10:06:33.197Z,101430.08
2018-12-19T10:09:02.631Z,101432.27
2018-12-19T10:11:31.983Z,101437.52
2018-12-19T10:14:01.283Z,101436.63
2018-12-19T10:16:30.716Z,101423.08
2018-12-19T10:19:00.008Z,101420.88
2018-12-19T10:21:29.290Z,101413.86
2018-12-19T10:23:58.721Z,101421.73
2018-12-19T10:26:28.100Z,101426.56
2018-12-19T10:28:57.559Z,101423.52
2018-12-19T10:31:27.215Z,101426.97
2018-12-19T10:33:56.529Z,101427.41
2018-12-19T10:36:38.466Z,101423.90
2018-12-19T10:39:13.887Z,101425.19
2018-12-19T10:41:43.162Z,101423.41
2018-12-19T10:44:12.553Z,101420.31
2018-12-19T10:46:41.865Z,101418.97
2018-12-19T10:49:11.145Z,101432.08
2018-12-19T10:51:40.462Z,101432.02
2018-12-19T10:54:09.779Z,101433.77
2018-12-19T10:56:39.178Z,101430.66
2018-12-19T10:59:08.594Z,101436.33
2018-12-19T11:01:37.975Z,101421.88
2018-12-19T11:04:07.478Z,101430.16
2018-12-19T11:06:36.784Z,101422.72
2018-12-19T11:09:07.485Z,101425.35
2018-12-19T11:11:36.818Z,101421.41
2018-12-19T11:14:06.114Z,101409.55
2018-12-19T11:16:35.421Z,101406.39
2018-12-19T11:19:04.723Z,101408.18
2018-12-19T11:21:34.027Z,101411.70
2018-12-19T11:24:03.325Z,101402.89
2018-12-19T11:26:32.623Z,101409.91
2018-12-19T11:29:02.857Z,101412.95
2018-12-19T11:31:31.274Z,101410.33
2018-12-19T11:34:00.655Z,101413.41
2018-12-19T11:36:30.041Z,101414.48
2018-12-19T11:38:59.344Z,101414.34
2018-12-19T11:41:28.672Z,101412.77
2018-12-19T11:43:58.050Z,101407.41
2018-12-19T11:46:27.559Z,101402.16
2018-12-19T11:48:56.937Z,101402.11
2018-12-19T11:51:26.283Z,101401.78
2018-12-19T11:53:55.576Z,101396.52
2018-12-19T11:56:25.033Z,101397.84
2018-12-19T11:58:54.331Z,101390.37
2018-12-19T12:01:23.689Z,101390.31
2018-12-19T12:03:52.953Z,101384.65
2018-12-19T12:06:22.294Z,101391.34
2018-12-19T12:08:51.667Z,101389.17
2018-12-19T12:11:21.501Z,101399.61
2018-12-19T12:13:50.873Z,101387.23
2018-12-19T12:16:20.227Z,101388.05
2018-12-19T12:18:49.521Z,101403.74
2018-12-19T12:21:18.922Z,101399.30
2018-12-19T12:23:48.192Z,101391.00
2018-12-19T12:26:17.501Z,101384.48
2018-12-19T12:28:46.904Z,101373.44
2018-12-19T12:31:16.218Z,101369.16
2018-12-19T12:33:45.518Z,101382.37
2018-12-19T12:36:14.958Z,101374.75
2018-12-19T12:38:44.329Z,101373.34
2018-12-19T12:41:13.619Z,101364.73
2018-12-19T12:43:42.887Z,101377.55
2018-12-19T12:46:12.200Z,101379.84
2018-12-19T12:48:42.740Z,101368.59
2018-12-19T12:51:12.144Z,101373.86
2018-12-19T12:53:41.436Z,101359.94
2018-12-19T12:56:10.832Z,101394.17
2018-12-19T12:58:40.139Z,101373.11
2018-12-19T13:01:09.428Z,101368.89
2018-12-19T13:03:38.732Z,101377.25
2018-12-19T13:06:08.145Z,101365.41
2018-12-19T13:08:37.414Z,101364.99
2018-12-19T13:11:06.745Z,101369.41
2018-12-19T13:13:36.016Z,101377.66
2018-12-19T13:16:05.320Z,101375.42
2018-12-19T13:18:34.650Z,101367.12
2018-12-19T13:21:04.087Z,101364.54
2018-12-19T13:23:33.450Z,101368.54
2018-12-19T13:26:02.763Z,101369.80
2018-12-19T13:28:32.158Z,101313.39
2018-12-19T13:31:01.462Z,101373.50
2018-12-19T13:33:30.776Z,101367.95
2018-12-19T13:36:00.051Z,101364.41
2018-12-19T13:38:29.361Z,101380.62
2018-12-19T13:40:58.684Z,101374.08
2018-12-19T13:43:29.500Z,101371.86
2018-12-19T13:45:58.970Z,101364.47
2018-12-19T13:48:28.254Z,101375.85
2018-12-19T13:50:57.632Z,101378.03
2018-12-19T13:53:27.024Z,101371.91
2018-12-19T13:55:56.426Z,101376.63
2018-12-19T13:58:26.104Z,101377.47
2018-12-19T14:00:55.524Z,101386.09
2018-12-19T14:03:24.936Z,101390.00
2018-12-19T14:05:54.248Z,101384.23
2018-12-19T14:08:23.528Z,101389.45
2018-12-19T14:10:52.965Z,101389.41
2018-12-19T14:13:23.704Z,101389.36
2018-12-19T14:15:53.000Z,101400.14
2018-12-19T14:18:22.385Z,101398.82
2018-12-19T14:20:52.320Z,101399.57
2018-12-19T14:23:21.634Z,101405.70
2018-12-19T14:25:50.976Z,101405.70
2018-12-19T14:28:20.406Z,101394.81
2018-12-19T14:30:49.766Z,101399.05
2018-12-19T14:33:19.051Z,101396.28
2018-12-19T14:35:48.323Z,101401.19
2018-12-19T14:38:17.604Z,101393.17
2018-12-19T14:40:46.880Z,101392.37
2018-12-19T14:43:16.148Z,101392.16
2018-12-19T14:45:45.508Z,101392.16
2018-12-19T14:48:14.820Z,101393.33
2018-12-19T14:50:44.086Z,101384.45
2018-12-19T14:53:13.948Z,101384.45
2018-12-19T14:55:43.258Z,101396.85
2018-12-19T14:58:12.537Z,101389.26
2018-12-19T15:00:41.840Z,101398.30
2018-12-19T15:03:11.227Z,101396.26
2018-12-19T15:05:40.529Z,101397.22
2018-12-19T15:08:09.849Z,101398.67
2018-12-19T15:10:39.133Z,101398.74
2018-12-19T15:13:08.461Z,101384.70
2018-12-19T15:15:37.770Z,101394.84
2018-12-19T15:18:07.082Z,101393.20
2018-12-19T15:20:36.338Z,101389.74
2018-12-19T15:23:05.654Z,101385.42
2018-12-19T15:25:35.693Z,101392.90
2018-12-19T15:28:05.022Z,101393.42
2018-12-19T15:30:34.468Z,101397.81
2018-12-19T15:33:03.760Z,101390.90
2018-12-19T15:35:33.048Z,101392.66
2018-12-19T15:38:02.936Z,101396.16
2018-12-19T15:40:32.212Z,101405.36
2018-12-19T15:43:01.553Z,101405.36
2018-12-19T15:45:30.861Z,101405.32
2018-12-19T15:48:00.322Z,101409.68
2018-12-19T15:50:29.636Z,101406.64
2018-12-19T15:52:59.025Z,101408.37
2018-12-19T15:55:28.287Z,101407.05
2018-12-19T15:57:57.595Z,101404.88
2018-12-19T16:00:26.989Z,101409.61
2018-12-19T16:02:56.291Z,101409.91
2018-12-19T16:05:25.616Z,101410.78
2018-12-19T16:07:54.884Z,101405.10
2018-12-19T16:10:24.159Z,101403.83
2018-12-19T16:12:53.470Z,101402.09
2018-12-19T16:15:22.791Z,101409.57
2018-12-19T16:17:52.221Z,101408.26
2018-12-19T16:20:21.530Z,101413.52
2018-12-19T16:22:51.256Z,101413.52
2018-12-19T16:25:20.575Z,101408.67
2018-12-19T16:27:49.870Z,101412.69
2018-12-19T16:30:19.248Z,101407.84
2018-12-19T16:32:48.506Z,101402.63
2018-12-19T16:35:17.849Z,101407.05
2018-12-19T16:37:47.116Z,101398.30
2018-12-19T16:40:16.428Z,101397.88
2018-12-19T16:42:46.257Z,101398.78
2018-12-19T16:45:14.969Z,101394.91
2018-12-19T16:47:44.243Z,101392.80
2018-12-19T16:50:13.562Z,101385.42
2018-12-19T16:52:42.851Z,101376.77
2018-12-19T16:55:12.254Z,101380.80
2018-12-19T16:57:41.678Z,101373.88
2018-12-19T17:00:11.478Z,101379.21
2018-12-19T17:02:40.795Z,101375.33
2018-12-19T17:05:10.218Z,101371.89
2018-12-19T17:07:39.596Z,101375.45
2018-12-19T17:10:09.107Z,101374.63
2018-12-19T17:12:38.415Z,101396.56
2018-12-19T17:15:07.710Z,101401.86
2018-12-19T17:17:36.957Z,101401.91
2018-12-19T17:20:07.131Z,101405.45
2018-12-19T17:22:36.451Z,101414.64
2018-12-19T17:25:06.025Z,101413.78
2018-12-19T17:27:35.391Z,101411.58
2018-12-19T17:30:04.716Z,101418.12
2018-12-19T17:32:34.048Z,101413.29
2018-12-19T17:35:03.428Z,101414.16
2018-12-19T17:37:32.671Z,101421.56
2018-12-19T17:40:02.009Z,101416.73
2018-12-19T17:42:31.269Z,101421.52
2018-12-19T17:45:00.722Z,101414.95
2018-12-19T17:47:30.130Z,101418.88
2018-12-19T17:49:59.425Z,101414.94
2018-12-19T17:52:28.734Z,101409.25
2018-12-19T17:54:58.090Z,101411.05
2018-12-19T17:57:27.430Z,101404.48
2018-12-19T17:59:56.773Z,101404.52
2018-12-19T18:02:26.079Z,101404.53
2018-12-19T18:04:55.468Z,101401.50
2018-12-19T18:07:24.756Z,101400.61
2018-12-19T18:09:54.054Z,101396.23
2018-12-19T18:12:23.435Z,101391.42
2018-12-19T18:14:52.743Z,101389.66
2018-12-19T18:17:22.040Z,101387.50
2018-12-19T18:19:51.334Z,101386.17
2018-12-19T18:22:20.646Z,101382.64
2018-12-19T18:24:49.958Z,101379.14
2018-12-19T18:27:19.236Z,101378.73
2018-12-19T18:29:48.562Z,101380.06
2018-12-19T18:32:17.851Z,101381.39
2018-12-19T18:34:47.279Z,101377.92
2018-12-19T18:37:16.646Z,101378.34
2018-12-19T18:39:45.945Z,101383.61
2018-12-19T18:42:15.225Z,101391.95
2018-12-19T18:44:44.746Z,101393.72
2018-12-19T18:47:14.009Z,101394.62
2018-12-19T18:49:43.286Z,101387.22
2018-12-19T18:52:12.657Z,101384.62
2018-12-19T18:54:41.935Z,101389.00
2018-12-19T18:57:11.213Z,101393.83
2018-12-19T18:59:40.540Z,101399.09
2018-12-19T19:02:10.044Z,101401.72
2018-12-19T19:04:39.314Z,101407.38
2018-12-19T19:07:08.302Z,101397.35
2018-12-19T19:09:37.528Z,101401.73
2018-12-19T19:12:06.787Z,101406.53
2018-12-19T19:14:36.120Z,101413.54
2018-12-19T19:17:05.418Z,101412.22
2018-12-19T19:19:34.776Z,101417.89
2018-12-19T19:22:04.038Z,101421.83
2018-12-19T19:24:33.334Z,101426.20
2018-12-19T19:27:02.627Z,101422.70
2018-12-19T19:29:31.986Z,101419.63
2018-12-19T19:32:01.361Z,101412.63
2018-12-19T19:34:30.723Z,101412.19
2018-12-19T19:37:00.067Z,101410.84
2018-12-19T19:39:29.362Z,101408.22
2018-12-19T19:41:58.810Z,101412.61
2018-12-19T19:44:28.178Z,101408.69
2018-12-19T19:46:57.474Z,101404.32
2018-12-19T19:49:26.785Z,101409.56
2018-12-19T19:51:56.073Z,101408.69
2018-12-19T19:54:25.493Z,101406.92
2018-12-19T19:56:54.799Z,101406.50
2018-12-19T19:59:24.087Z,101413.91
2018-12-19T20:01:53.436Z,101412.59
2018-12-19T20:04:22.747Z,101408.67
2018-12-19T20:06:59.002Z,101399.52
2018-12-19T20:09:21.489Z,101375.98
2018-12-19T20:11:50.811Z,101410.02
2018-12-19T20:14:20.091Z,101405.67
2018-12-19T20:17:01.778Z,101403.48
2018-12-19T20:19:31.162Z,101397.78
2018-12-19T20:22:00.686Z,101394.73
2018-12-19T20:24:30.076Z,101391.70
2018-12-19T20:26:59.410Z,101403.47
2018-12-19T20:29:28.757Z,101396.48
2018-12-19T20:31:58.040Z,101396.06
2018-12-19T20:34:27.382Z,101393.89
2018-12-19T20:36:56.720Z,101395.63
2018-12-19T20:39:26.099Z,101396.05
2018-12-19T20:41:55.497Z,101394.30
2018-12-19T20:44:24.835Z,101384.22
2018-12-19T20:46:54.203Z,101392.52
2018-12-19T20:49:23.736Z,101392.48
2018-12-19T20:51:53.006Z,101388.12
2018-12-19T20:54:22.441Z,101389.00
2018-12-19T20:56:51.704Z,101393.36
2018-12-19T20:59:21.077Z,101390.30
2018-12-19T21:01:50.554Z,101385.75
2018-12-19T21:04:20.037Z,101391.82
2018-12-19T21:06:49.292Z,101387.50
2018-12-19T21:09:18.661Z,101391.46
2018-12-19T21:11:48.034Z,101399.78
2018-12-19T21:14:17.505Z,101390.64
2018-12-19T21:17:04.465Z,101402.87
2018-12-19T21:19:34.030Z,101395.90
2018-12-19T21:22:03.397Z,101398.11
2018-12-19T21:24:32.727Z,101402.03
2018-12-19T21:27:02.093Z,101401.61
2018-12-19T21:29:31.460Z,101404.69
2018-12-19T21:32:00.809Z,101406.00
2018-12-19T21:34:30.243Z,101414.34
2018-12-19T21:36:59.693Z,101407.80
2018-12-19T21:39:29.030Z,101408.25
2018-12-19T21:41:58.413Z,101404.74
2018-12-19T21:44:27.796Z,101399.95
2018-12-19T21:46:57.168Z,101393.41
2018-12-19T21:49:26.595Z,101398.22
2018-12-19T21:51:55.877Z,101394.71
2018-12-19T21:54:25.263Z,101393.39
2018-12-19T21:56:54.620Z,101395.60
2018-12-19T21:59:23.949Z,101393.84
2018-12-19T22:01:53.276Z,101398.20
2018-12-19T22:04:22.678Z,101393.39
2018-12-19T22:06:51.972Z,101401.25
2018-12-19T22:09:21.247Z,101395.56
2018-12-19T22:11:50.724Z,101398.17
2018-12-19T22:14:20.046Z,101393.34
2018-12-19T22:17:06.937Z,101397.72
2018-12-19T22:19:36.345Z,101392.45
2018-12-19T22:22:05.749Z,101396.37
2018-12-19T22:24:35.161Z,101394.19
2018-12-19T22:27:04.478Z,101386.30
2018-12-19T22:29:33.940Z,101391.55
2018-12-19T22:32:03.337Z,101388.91
2018-12-19T22:34:32.603Z,101386.26
2018-12-19T22:37:02.024Z,101378.82
2018-12-19T22:39:31.334Z,101372.70
2018-12-19T22:42:00.623Z,101380.14
2018-12-19T22:44:29.926Z,101383.18
2018-12-19T22:46:59.273Z,101385.81
2018-12-19T22:49:28.575Z,101393.24
2018-12-19T22:51:57.890Z,101385.80
2018-12-19T22:54:27.153Z,101380.11
2018-12-19T22:56:56.430Z,101377.46
2018-12-19T22:59:25.998Z,101379.23
2018-12-19T23:02:20.490Z,101376.59
2018-12-19T23:04:49.803Z,101385.30
2018-12-19T23:07:19.101Z,101375.22
2018-12-19T23:09:48.418Z,101367.73
2018-12-19T23:12:17.745Z,101372.91
2018-12-19T23:14:47.097Z,101367.62
2018-12-19T23:17:34.512Z,101368.41
2018-12-19T23:20:04.425Z,101361.85
2018-12-19T23:22:33.773Z,101359.23
2018-12-19T23:25:03.263Z,101364.41
2018-12-19T23:27:34.173Z,101361.33
2018-12-19T23:30:03.502Z,101359.15
2018-12-19T23:32:32.821Z,101351.28
2018-12-19T23:35:02.069Z,101362.62
2018-12-19T23:37:31.583Z,101358.27
2018-12-19T23:40:00.691Z,101362.20
2018-12-19T23:42:30.013Z,101347.77
2018-12-19T23:44:59.418Z,101359.55
2018-12-19T23:47:28.686Z,101358.68
2018-12-19T23:49:57.959Z,101356.47
2018-12-19T23:52:27.180Z,101353.84
2018-12-19T23:54:56.513Z,101349.49
2018-12-19T23:57:25.782Z,101356.05
2018-12-19T23:59:55.331Z,101356.08
